createdAt,value
2022-11-05T00:01:30.544Z,62641.09
2022-11-05T00:05:08.194Z,62641.09
2022-11-05T00:08:48.517Z,62641.09
2022-11-05T00:12:30.247Z,62641.09
2022-11-05T00:16:08.289Z,62641.09
2022-11-05T00:19:27.296Z,62641.09
2022-11-05T00:23:04.863Z,62641.09
2022-11-05T00:26:23.915Z,62641.09
2022-11-05T00:29:43.020Z,62641.09
2022-11-05T00:33:08.491Z,62641.09
2022-11-05T00:36:28.031Z,62641.09
2022-11-05T00:39:50.167Z,62641.09
2022-11-05T00:43:27.715Z,62641.09
2022-11-05T00:46:46.780Z,62641.09
2022-11-05T00:50:06.162Z,62641.09
2022-11-05T00:53:25.182Z,62641.09
2022-11-05T00:56:50.357Z,62641.09
2022-11-05T01:00:09.738Z,62641.09
2022-11-05T01:03:36.149Z,62641.09
2022-11-05T01:07:02.843Z,62641.09
2022-11-05T01:10:22.548Z,62641.09
2022-11-05T01:13:42.081Z,62641.09
2022-11-05T01:17:01.985Z,62641.09
2022-11-05T01:20:21.051Z,62641.09
2022-11-05T01:23:40.377Z,62641.09
2022-11-05T01:26:59.476Z,62641.09
2022-11-05T01:30:18.829Z,62641.09
2022-11-05T01:33:37.880Z,62641.09
2022-11-05T01:36:57.466Z,62641.09
2022-11-05T01:40:18.371Z,62641.09
2022-11-05T01:43:57.067Z,62641.09
2022-11-05T01:47:32.145Z,62641.09
2022-11-05T01:50:53.147Z,62641.09
2022-11-05T01:54:14.318Z,62641.09
2022-11-05T01:57:36.268Z,62641.09
2022-11-05T02:00:56.718Z,62641.09
2022-11-05T02:04:21.569Z,62641.09
2022-11-05T02:07:41.147Z,62641.09
2022-11-05T02:11:05.501Z,62641.09
2022-11-05T02:14:24.681Z,62641.09
2022-11-05T02:17:51.561Z,62641.09
2022-11-05T02:21:42.918Z,62641.09
2022-11-05T02:25:41.749Z,62641.09
2022-11-05T02:29:06.639Z,62641.09
2022-11-05T02:33:01.896Z,62641.09
2022-11-05T02:36:35.473Z,62641.09
2022-11-05T02:40:18.273Z,62641.09
2022-11-05T02:43:56.435Z,62641.09
2022-11-05T02:47:34.682Z,62641.09
2022-11-05T02:51:07.021Z,62641.09
2022-11-05T02:54:51.589Z,62641.09
2022-11-05T02:58:11.820Z,62641.09
2022-11-05T03:01:51.879Z,62641.09
2022-11-05T03:05:12.615Z,62641.09
2022-11-05T03:08:49.110Z,62641.09
2022-11-05T03:12:34.195Z,62641.09
2022-11-05T03:16:25.930Z,62641.09
2022-11-05T03:20:12.044Z,62641.09
2022-11-05T03:23:56.409Z,62641.09
2022-11-05T03:27:27.264Z,62641.09
2022-11-05T03:30:50.584Z,62641.09
2022-11-05T03:34:19.744Z,62641.09
2022-11-05T03:37:43.256Z,62641.09
2022-11-05T03:41:29.939Z,62641.09
2022-11-05T03:44:52.370Z,62641.09
2022-11-05T03:48:15.593Z,62641.09
2022-11-05T03:51:59.427Z,62641.09
2022-11-05T03:55:19.960Z,62641.09
2022-11-05T03:58:43.418Z,62641.09
2022-11-05T04:02:02.710Z,62641.09
2022-11-05T04:05:21.994Z,62641.09
2022-11-05T04:08:59.913Z,62641.09
2022-11-05T04:12:37.368Z,62641.09
2022-11-05T04:16:15.572Z,62641.09
2022-11-05T04:19:54.337Z,62641.09
2022-11-05T04:23:32.356Z,62641.09
2022-11-05T04:26:51.400Z,62641.09
2022-11-05T04:30:20.013Z,62641.09
2022-11-05T04:33:53.125Z,62641.09
2022-11-05T04:37:12.744Z,62641.09
2022-11-05T04:40:32.183Z,62641.09
2022-11-05T04:43:51.388Z,62641.09
2022-11-05T04:47:10.494Z,62641.09
2022-11-05T04:50:29.869Z,62641.09
2022-11-05T04:53:49.004Z,62641.09
2022-11-05T04:57:11.606Z,62641.09
2022-11-05T05:00:30.684Z,62641.09
2022-11-05T05:03:50.728Z,62641.09
2022-11-05T05:07:10.304Z,62641.09
2022-11-05T05:10:29.411Z,62641.09
2022-11-05T05:13:49.003Z,62641.09
2022-11-05T05:17:10.991Z,62641.09
2022-11-05T05:21:13.781Z,62641.09
2022-11-05T05:24:32.965Z,62641.09
2022-11-05T05:27:52.030Z,62641.09
2022-11-05T05:31:11.214Z,62641.09
2022-11-05T05:34:30.341Z,62641.09
2022-11-05T05:37:49.456Z,62641.09
2022-11-05T05:41:08.511Z,62641.09
2022-11-05T05:44:27.602Z,62641.09
2022-11-05T05:47:47.197Z,62641.09
2022-11-05T05:51:07.927Z,62641.09
2022-11-05T05:54:31.911Z,62641.09
2022-11-05T05:57:53.659Z,62641.09
2022-11-05T06:01:18.545Z,62641.09
2022-11-05T06:04:38.011Z,62641.09
2022-11-05T06:07:57.636Z,62641.09
2022-11-05T06:11:17.089Z,62641.09
2022-11-05T06:14:36.398Z,62641.09
2022-11-05T06:17:55.560Z,62641.09
2022-11-05T06:21:18.714Z,62641.09
2022-11-05T06:24:38.517Z,62641.09
2022-11-05T06:27:57.736Z,62641.09
2022-11-05T06:31:16.876Z,62641.09
2022-11-05T06:34:36.952Z,62641.09
2022-11-05T06:38:00.064Z,62641.09
2022-11-05T06:41:19.156Z,62641.09
2022-11-05T06:44:38.339Z,62641.09
2022-11-05T06:47:58.438Z,62641.09
2022-11-05T06:51:18.178Z,62641.09
2022-11-05T06:54:37.200Z,62641.09
2022-11-05T06:57:56.973Z,62641.09
2022-11-05T07:01:16.765Z,62641.09
2022-11-05T07:04:36.328Z,62641.09
2022-11-05T07:07:55.357Z,62641.09
2022-11-05T07:11:14.424Z,62641.09
2022-11-05T07:14:33.501Z,62641.09
2022-11-05T07:17:56.676Z,62641.09
2022-11-05T07:21:15.705Z,62641.09
2022-11-05T07:24:34.800Z,62641.09
2022-11-05T07:27:53.840Z,62641.09
2022-11-05T16:52:08.699Z,100144.53
2022-11-05T16:54:35.232Z,100142.72
2022-11-05T16:57:04.853Z,100135.78
2022-11-05T16:59:31.848Z,100143.50
2022-11-05T17:01:58.976Z,100148.28
2022-11-05T17:04:25.757Z,100142.63
2022-11-05T17:06:52.286Z,100151.66
2022-11-05T17:09:19.691Z,100144.66
2022-11-05T17:11:46.264Z,100152.25
2022-11-05T17:14:13.762Z,100156.63
2022-11-05T17:16:41.127Z,100141.25
2022-11-05T17:19:13.925Z,100152.91
2022-11-05T17:21:40.519Z,100141.69
2022-11-05T17:24:07.571Z,100138.66
2022-11-05T17:26:34.744Z,100146.47
2022-11-05T17:29:01.268Z,100152.13
2022-11-05T17:31:28.039Z,100157.78
2022-11-05T17:33:58.452Z,100167.22
2022-11-05T17:36:25.726Z,100167.97
2022-11-05T17:38:53.136Z,100162.47
2022-11-05T17:41:22.245Z,100165.84
2022-11-05T17:43:52.791Z,100169.78
2022-11-05T17:46:19.596Z,100171.94
2022-11-05T17:48:46.583Z,100173.69
2022-11-05T17:51:16.327Z,100165.06
2022-11-05T17:53:43.236Z,100166.38
2022-11-05T17:56:19.047Z,100166.47
2022-11-05T17:58:51.319Z,100168.41
2022-11-05T18:01:30.715Z,100159.25
2022-11-05T18:03:57.521Z,100163.97
2022-11-05T18:06:24.082Z,100163.28
2022-11-05T18:08:50.674Z,100159.00
2022-11-05T18:11:17.688Z,100149.03
2022-11-05T18:13:44.349Z,100154.03
2022-11-05T18:16:10.860Z,100164.19
2022-11-05T18:18:37.416Z,100168.25
2022-11-05T18:21:04.078Z,100172.50
2022-11-05T18:23:30.789Z,100177.09
2022-11-05T18:25:57.801Z,100182.13
2022-11-05T18:28:24.375Z,100177.81
2022-11-05T18:30:51.320Z,100180.25
2022-11-05T18:33:17.808Z,100181.53
2022-11-05T18:35:45.269Z,100163.44
2022-11-05T18:38:12.330Z,100166.97
2022-11-05T18:40:38.941Z,100162.56
2022-11-05T18:43:05.517Z,100147.34
2022-11-05T18:45:33.403Z,100140.88
2022-11-05T18:48:03.741Z,100144.41
2022-11-05T18:50:30.765Z,100146.81
2022-11-05T18:52:57.839Z,100158.28
2022-11-05T18:55:24.997Z,100167.16
2022-11-05T18:57:52.232Z,100166.19
2022-11-05T19:00:18.965Z,100169.72
2022-11-05T19:02:45.584Z,100176.59
2022-11-05T19:05:28.548Z,100173.47
2022-11-05T19:07:56.360Z,100172.69
2022-11-05T19:10:22.898Z,100171.56
2022-11-05T19:12:49.581Z,100165.69
2022-11-05T19:15:16.452Z,100174.94
2022-11-05T19:17:43.303Z,100180.81
2022-11-05T19:20:11.498Z,100181.56
2022-11-05T19:22:38.089Z,100181.59
2022-11-05T19:25:05.764Z,100182.50
2022-11-05T19:27:32.272Z,100173.66
2022-11-05T19:29:58.762Z,100174.94
2022-11-05T19:32:25.336Z,100168.25
2022-11-05T19:34:52.107Z,100168.44
2022-11-05T19:37:19.727Z,100170.41
2022-11-05T19:39:46.335Z,100165.44
2022-11-05T19:42:13.005Z,100173.53
2022-11-05T19:44:40.381Z,100164.91
2022-11-05T19:47:06.932Z,100173.53
2022-11-05T19:49:33.453Z,100165.16
2022-11-05T19:52:00.011Z,100174.47
2022-11-05T19:54:26.571Z,100175.44
2022-11-05T19:56:53.322Z,100179.22
2022-11-05T19:59:19.845Z,100183.50
2022-11-05T20:01:46.456Z,100182.84
2022-11-05T20:04:13.199Z,100188.50
2022-11-05T20:06:40.802Z,100178.53
2022-11-05T20:09:27.415Z,100187.19
2022-11-05T20:11:56.348Z,100192.94
2022-11-05T20:14:25.194Z,100190.72
2022-11-05T20:16:52.303Z,100190.41
2022-11-05T20:19:20.811Z,100198.22
2022-11-05T20:21:47.656Z,100204.63
2022-11-05T20:24:24.711Z,100202.94
2022-11-05T20:26:54.153Z,100200.97
2022-11-05T20:29:21.313Z,100203.97
2022-11-05T20:31:48.525Z,100196.94
2022-11-05T20:34:15.087Z,100200.31
2022-11-05T20:36:41.598Z,100200.00
2022-11-05T20:39:08.093Z,100202.09
2022-11-05T20:41:34.587Z,100204.78
2022-11-05T20:44:01.134Z,100207.34
2022-11-05T20:46:27.672Z,100210.28
2022-11-05T20:48:54.712Z,100216.19
2022-11-05T20:51:24.167Z,100223.03
2022-11-05T20:53:58.343Z,100218.91
2022-11-05T20:56:27.903Z,100216.75
2022-11-05T20:58:57.885Z,100226.00
2022-11-05T21:01:25.977Z,100223.19
2022-11-05T21:03:52.989Z,100228.72
2022-11-05T21:06:19.582Z,100229.94
2022-11-05T21:08:50.333Z,100222.38
2022-11-05T21:11:18.112Z,100228.03
2022-11-05T21:13:45.375Z,100228.84
2022-11-05T21:16:17.899Z,100223.00
2022-11-05T21:18:44.894Z,100225.91
2022-11-05T21:21:19.624Z,100224.16
2022-11-05T21:23:46.855Z,100215.69
2022-11-05T21:26:14.768Z,100203.63
2022-11-05T21:28:41.808Z,100206.97
2022-11-05T21:31:09.117Z,100202.31
2022-11-05T21:33:35.838Z,100193.09
2022-11-05T21:36:10.494Z,100198.75
2022-11-05T21:38:37.647Z,100185.00
2022-11-05T21:41:05.220Z,100183.50
2022-11-05T21:43:31.928Z,100177.81
2022-11-05T21:46:02.345Z,100168.94
2022-11-05T21:48:29.290Z,100178.72
2022-11-05T21:51:14.505Z,100170.56
2022-11-05T21:53:59.871Z,100164.44
2022-11-05T21:56:47.393Z,100157.25
2022-11-05T21:59:34.972Z,100172.69
2022-11-05T22:02:02.522Z,100164.66
2022-11-05T22:04:30.794Z,100165.31
2022-11-05T22:06:58.079Z,100162.66
2022-11-05T22:09:25.160Z,100157.41
2022-11-05T22:11:52.396Z,100155.41
2022-11-05T22:14:18.902Z,100153.41
2022-11-05T22:16:45.461Z,100145.06
2022-11-05T22:19:12.288Z,100149.13
2022-11-05T22:21:38.863Z,100147.59
2022-11-05T22:24:06.131Z,100156.28
2022-11-05T22:26:33.178Z,100147.44
2022-11-05T22:28:59.676Z,100150.34
2022-11-05T22:31:26.194Z,100157.56
2022-11-05T22:33:52.727Z,100157.63
2022-11-05T22:36:19.274Z,100159.66
2022-11-05T22:38:45.896Z,100160.09
2022-11-05T22:41:15.286Z,100161.25
2022-11-05T22:43:41.995Z,100147.41
2022-11-05T22:46:14.597Z,100153.81
2022-11-05T22:48:41.601Z,100152.22
2022-11-05T22:51:11.017Z,100158.03
2022-11-05T22:53:38.331Z,100154.66
2022-11-05T22:56:06.653Z,100156.59
2022-11-05T22:58:33.496Z,100156.63
2022-11-05T23:01:00.907Z,100159.84
2022-11-05T23:03:31.287Z,100155.28
2022-11-05T23:06:49.590Z,100148.56
2022-11-05T23:09:42.030Z,100146.06
2022-11-05T23:12:19.795Z,100145.78
2022-11-05T23:14:46.410Z,100136.28
2022-11-05T23:17:31.989Z,100129.75
2022-11-05T23:20:17.211Z,100128.53
2022-11-05T23:23:02.372Z,100119.00
2022-11-05T23:25:28.894Z,100102.53
2022-11-05T23:27:55.756Z,100100.47
2022-11-05T23:30:26.835Z,100092.84
2022-11-05T23:32:53.604Z,100094.75
2022-11-05T23:35:43.218Z,100096.28
2022-11-05T23:38:28.551Z,100105.41
2022-11-05T23:41:18.206Z,100108.25
2022-11-05T23:44:03.034Z,100105.50
2022-11-05T23:46:48.388Z,100090.44
2022-11-05T23:49:14.872Z,100097.63
2022-11-05T23:51:41.507Z,100092.03
2022-11-05T23:54:08.120Z,100088.97
2022-11-05T23:56:34.674Z,100092.94
2022-11-05T23:59:01.162Z,100087.13
